createdAt,value
2017-08-05T06:52:15.698Z,4.10
2017-08-05T06:53:19.862Z,4.11
2017-08-05T06:54:25.827Z,4.11
2017-08-05T06:55:32.027Z,4.12
2017-08-05T06:56:39.432Z,4.12
2017-08-05T06:57:44.112Z,4.12
2017-08-05T06:58:51.612Z,4.12
2017-08-05T06:59:56.341Z,4.12
2017-08-05T07:01:01.176Z,4.11
2017-08-05T07:02:08.208Z,4.12
2017-08-05T07:03:13.064Z,4.12
2017-08-05T07:04:19.344Z,4.13
2017-08-05T07:05:28.293Z,4.12
2017-08-05T07:06:32.051Z,4.13
2017-08-05T07:07:36.864Z,4.12
2017-08-05T07:08:45.246Z,4.13
2017-08-05T07:09:47.305Z,4.12
2017-08-05T07:10:54.006Z,4.14
2017-08-05T07:11:59.190Z,4.12
2017-08-05T07:13:06.230Z,4.12
2017-08-05T07:14:10.367Z,4.12
2017-08-05T07:15:18.130Z,4.12
2017-08-05T07:16:26.974Z,4.11
2017-08-05T07:17:32.532Z,4.12
2017-08-05T07:18:37.196Z,4.12
2017-08-05T07:19:41.960Z,4.12
2017-08-05T07:20:47.488Z,4.11
2017-08-05T07:21:53.834Z,4.13
2017-08-05T07:22:59.815Z,4.12
2017-08-05T07:24:09.271Z,4.12
2017-08-05T07:25:13.998Z,4.13
2017-08-05T07:26:20.851Z,4.14
2017-08-05T07:27:27.028Z,4.14
2017-08-05T07:28:34.056Z,4.14
2017-08-05T07:29:41.639Z,4.14
2017-08-05T07:30:47.235Z,4.14
2017-08-05T07:31:53.714Z,4.14
2017-08-05T07:33:01.423Z,4.14
2017-08-05T07:34:06.271Z,4.14
2017-08-05T07:35:11.615Z,4.15
2017-08-05T07:36:15.732Z,4.15
2017-08-05T07:37:21.923Z,4.15
2017-08-05T07:38:28.444Z,4.15
2017-08-05T07:39:34.262Z,4.15
2017-08-05T07:40:42.540Z,4.15
2017-08-05T07:41:46.856Z,4.15
2017-08-05T07:42:52.284Z,4.15
2017-08-05T07:43:56.393Z,4.14
2017-08-05T07:45:03.878Z,4.13
2017-08-05T07:46:10.249Z,4.14
2017-08-05T07:47:17.287Z,4.13
2017-08-05T07:48:21.519Z,4.13
2017-08-05T07:49:26.913Z,4.14
2017-08-05T07:50:31.794Z,4.13
2017-08-05T07:51:39.017Z,4.13
2017-08-05T07:52:46.147Z,4.13
2017-08-05T07:53:50.955Z,4.14
2017-08-05T07:54:56.696Z,4.14
2017-08-05T07:56:00.932Z,4.14
2017-08-05T07:57:06.397Z,4.12
2017-08-05T07:58:12.100Z,4.13
2017-08-05T07:59:15.692Z,4.12
2017-08-05T08:00:19.946Z,4.14
2017-08-05T08:01:26.453Z,4.13
2017-08-05T08:02:32.066Z,4.13
2017-08-05T08:03:40.145Z,4.13
2017-08-05T08:04:47.817Z,4.14
2017-08-05T08:05:53.818Z,4.13
2017-08-05T08:07:00.843Z,4.13
2017-08-05T08:08:09.321Z,4.13
2017-08-05T08:09:12.561Z,4.13
2017-08-05T08:10:17.582Z,4.13
2017-08-05T08:11:26.739Z,4.13
2017-08-05T08:12:34.334Z,4.14
2017-08-05T08:13:40.834Z,4.14
2017-08-05T08:14:47.016Z,4.14
2017-08-05T08:15:53.285Z,4.14
2017-08-05T08:16:57.917Z,4.14
2017-08-05T08:18:02.838Z,4.14
2017-08-05T08:19:07.630Z,4.14
2017-08-05T08:20:13.823Z,4.14
2017-08-05T08:21:20.007Z,4.14
2017-08-05T08:22:27.348Z,4.14
2017-08-05T08:23:32.346Z,4.14
2017-08-05T08:24:35.865Z,4.13
2017-08-05T08:25:40.164Z,4.14
2017-08-05T08:26:47.638Z,4.14
2017-08-05T08:27:53.873Z,4.14
2017-08-05T08:28:57.672Z,4.14
2017-08-05T08:30:03.851Z,4.13
2017-08-05T08:31:09.994Z,4.14
2017-08-05T08:32:13.997Z,4.13
2017-08-05T08:33:23.599Z,4.14
2017-08-05T08:34:29.480Z,4.13
2017-08-05T08:35:34.551Z,4.13
2017-08-05T08:36:38.455Z,4.14
2017-08-05T08:37:44.367Z,4.14
2017-08-05T08:38:49.743Z,4.14
2017-08-05T08:39:56.099Z,4.13
2017-08-05T08:41:00.882Z,4.14
2017-08-05T08:42:05.054Z,4.14
2017-08-05T08:43:11.544Z,4.14
2017-08-05T08:44:16.415Z,4.13
2017-08-05T08:45:21.491Z,4.14
2017-08-05T08:46:24.838Z,4.14
2017-08-05T08:47:30.878Z,4.14
2017-08-05T08:48:35.828Z,4.14
2017-08-05T08:49:43.235Z,4.14
2017-08-05T08:50:50.413Z,4.14
2017-08-05T08:51:54.378Z,4.14
2017-08-05T08:53:01.200Z,4.13
2017-08-05T08:54:08.203Z,4.14
2017-08-05T08:55:15.121Z,4.14
2017-08-05T08:56:21.614Z,4.14
2017-08-05T08:57:28.462Z,4.13
2017-08-05T08:58:36.300Z,4.14
2017-08-05T08:59:42.629Z,4.14
2017-08-05T09:00:49.649Z,4.13
2017-08-05T09:01:56.552Z,4.14
2017-08-05T09:03:05.446Z,4.14
2017-08-05T09:04:12.415Z,4.14
2017-08-05T09:05:16.757Z,4.14
2017-08-05T09:06:23.871Z,4.14
2017-08-05T09:07:31.524Z,4.14
2017-08-05T09:08:36.936Z,4.14
2017-08-05T09:09:44.926Z,4.14
2017-08-05T09:10:52.069Z,4.13
2017-08-05T09:11:57.931Z,4.14
2017-08-05T09:13:02.252Z,4.14
2017-08-05T09:14:06.957Z,4.14
2017-08-05T09:15:11.928Z,4.14
2017-08-05T09:16:15.972Z,4.14
2017-08-05T09:17:23.449Z,4.14
2017-08-05T09:18:28.399Z,4.14
2017-08-05T09:19:37.124Z,4.14
2017-08-05T09:20:44.954Z,4.14
2017-08-05T09:21:50.619Z,4.14
2017-08-05T09:22:54.934Z,4.14
2017-08-05T09:24:01.067Z,4.14
2017-08-05T09:25:09.090Z,4.14
2017-08-05T09:26:13.172Z,4.14
2017-08-05T09:27:18.144Z,4.13
2017-08-05T09:28:23.379Z,4.14
2017-08-05T09:29:31.966Z,4.15
2017-08-05T09:30:37.751Z,4.14
2017-08-05T09:31:43.851Z,4.14
2017-08-05T09:32:50.215Z,4.14
2017-08-05T09:33:55.710Z,4.14
2017-08-05T09:35:00.967Z,4.14
2017-08-05T09:36:09.006Z,4.14
2017-08-05T09:37:14.280Z,4.14
2017-08-05T09:38:18.974Z,4.14
2017-08-05T09:39:23.049Z,4.14
2017-08-05T09:40:30.658Z,4.14
2017-08-05T09:41:34.760Z,4.13
2017-08-05T09:42:41.136Z,4.14
2017-08-05T09:43:47.316Z,4.13
2017-08-05T09:44:55.151Z,4.14
2017-08-05T09:46:01.048Z,4.14
2017-08-05T09:47:07.489Z,4.14
2017-08-05T09:49:14.924Z,4.14
2017-08-05T09:50:17.156Z,4.14
2017-08-05T09:51:19.369Z,4.14
2017-08-05T09:52:21.621Z,4.14
2017-08-05T09:53:23.866Z,4.15
2017-08-05T09:54:26.126Z,4.15
2017-08-05T09:55:28.367Z,4.14
2017-08-05T09:56:30.644Z,4.14
2017-08-05T09:57:32.844Z,4.14
2017-08-05T09:58:38.767Z,4.14
2017-08-05T09:59:44.282Z,4.15
2017-08-05T10:00:50.056Z,4.14
2017-08-05T10:03:05.702Z,4.14
2017-08-05T10:04:14.508Z,4.14
2017-08-05T10:05:20.953Z,4.14
2017-08-05T10:06:24.772Z,4.14
2017-08-05T10:07:34.010Z,4.14
2017-08-05T10:08:37.939Z,4.14
2017-08-05T10:09:42.531Z,4.14
2017-08-05T10:10:48.047Z,4.14
2017-08-05T10:11:53.183Z,4.15
2017-08-05T10:12:58.546Z,4.14
2017-08-05T10:14:04.035Z,4.13
2017-08-05T10:15:08.015Z,4.14
2017-08-05T10:16:12.718Z,4.15
2017-08-05T10:17:16.846Z,4.14
2017-08-05T10:18:22.261Z,4.14
2017-08-05T10:19:28.627Z,4.13
2017-08-05T10:20:34.562Z,4.14
2017-08-05T10:21:38.918Z,4.15
2017-08-05T10:22:43.856Z,4.14
2017-08-05T10:23:48.816Z,4.15
2017-08-05T10:24:56.558Z,4.14
2017-08-05T10:25:58.655Z,4.14
2017-08-05T10:27:03.281Z,4.14
2017-08-05T10:28:08.561Z,4.14
2017-08-05T10:29:12.410Z,4.14
2017-08-05T10:30:18.346Z,4.14
2017-08-05T10:31:24.071Z,4.14
2017-08-05T10:32:28.567Z,4.13
2017-08-05T10:33:32.409Z,4.14
2017-08-05T10:34:38.553Z,4.14
2017-08-05T10:35:46.164Z,4.15
2017-08-05T10:36:53.446Z,4.14
2017-08-05T10:37:59.802Z,4.15
2017-08-05T10:39:10.050Z,4.14
2017-08-05T10:40:17.083Z,4.14
2017-08-05T10:41:22.274Z,4.14
2017-08-05T10:42:32.592Z,4.14
2017-08-05T10:43:37.640Z,4.14
2017-08-05T10:44:43.785Z,4.14
2017-08-05T10:45:50.100Z,4.14
2017-08-05T10:46:51.962Z,4.14
2017-08-05T10:47:58.776Z,4.15
2017-08-05T10:49:02.448Z,4.14
2017-08-05T10:50:09.619Z,4.15
2017-08-05T10:51:15.144Z,4.15
2017-08-05T10:53:33.604Z,4.15
2017-08-05T10:54:41.221Z,4.15
2017-08-05T10:55:45.251Z,4.16
2017-08-05T10:56:50.720Z,4.15
2017-08-05T10:57:58.621Z,4.14
2017-08-05T10:59:04.277Z,4.15
2017-08-05T11:00:10.735Z,4.15
2017-08-05T11:01:16.616Z,4.15
2017-08-05T11:02:20.863Z,4.15
2017-08-05T11:03:27.654Z,4.15
2017-08-05T11:04:32.762Z,4.14
2017-08-05T11:05:36.571Z,4.14
2017-08-05T11:06:43.842Z,4.14
2017-08-05T11:07:51.284Z,4.15
2017-08-05T11:08:56.630Z,4.14
2017-08-05T11:10:01.131Z,4.15
2017-08-05T11:11:07.092Z,4.15
2017-08-05T11:12:13.725Z,4.14
2017-08-05T11:13:17.893Z,4.14
2017-08-05T11:14:21.997Z,4.14
2017-08-05T11:15:27.586Z,4.14
2017-08-05T11:16:32.643Z,4.15
2017-08-05T11:17:39.654Z,4.14
2017-08-05T11:18:43.602Z,4.14
2017-08-05T11:19:49.270Z,4.14
2017-08-05T11:20:54.650Z,4.14
2017-08-05T11:22:01.660Z,4.15
2017-08-05T11:23:06.255Z,4.14
2017-08-05T11:24:10.487Z,4.15
2017-08-05T11:25:19.184Z,4.15
2017-08-05T11:26:24.659Z,4.14
2017-08-05T11:27:30.014Z,4.14
2017-08-05T11:28:39.054Z,4.14
2017-08-05T11:29:45.667Z,4.15
2017-08-05T11:30:51.811Z,4.14
2017-08-05T11:31:56.875Z,4.14
2017-08-05T11:33:02.775Z,4.14
2017-08-05T11:34:08.318Z,4.14
2017-08-05T11:35:15.185Z,4.13
2017-08-05T11:36:20.363Z,4.14
2017-08-05T11:37:26.384Z,4.14
2017-08-05T11:38:31.688Z,4.14
2017-08-05T11:39:37.765Z,4.14
2017-08-05T11:40:43.160Z,4.14
2017-08-05T11:41:47.878Z,4.14
2017-08-05T11:42:53.710Z,4.13
2017-08-05T11:43:56.680Z,4.14
2017-08-05T11:45:02.697Z,4.14
2017-08-05T11:46:09.694Z,4.13
2017-08-05T11:47:14.397Z,4.14
2017-08-05T11:48:19.380Z,4.14
2017-08-05T11:49:23.953Z,4.14
2017-08-05T11:50:31.295Z,4.14
2017-08-05T11:51:38.518Z,4.14
2017-08-05T11:52:44.023Z,4.13
2017-08-05T11:53:51.710Z,4.14
2017-08-05T11:54:56.538Z,4.14
2017-08-05T11:56:02.487Z,4.14
2017-08-05T11:57:08.075Z,4.14
2017-08-05T11:58:15.366Z,4.14
2017-08-05T11:59:21.986Z,4.13
2017-08-05T12:00:29.227Z,4.14
2017-08-05T12:01:35.226Z,4.14
2017-08-05T12:02:41.460Z,4.14
2017-08-05T12:03:47.369Z,4.14
2017-08-05T12:04:53.402Z,4.14
2017-08-05T12:06:00.399Z,4.13
2017-08-05T12:07:04.483Z,4.13
2017-08-05T12:08:11.231Z,4.14
2017-08-05T12:09:18.446Z,4.14
2017-08-05T12:10:24.831Z,4.14
2017-08-05T12:11:30.870Z,4.13
2017-08-05T12:12:36.677Z,4.13
2017-08-05T12:13:40.001Z,4.14
2017-08-05T12:14:48.273Z,4.13
2017-08-05T12:15:53.113Z,4.13
2017-08-05T12:17:00.749Z,4.14
2017-08-05T12:18:06.022Z,4.14
2017-08-05T12:19:10.431Z,4.13
2017-08-05T12:20:17.488Z,4.13
2017-08-05T12:21:23.191Z,4.13
2017-08-05T12:22:27.574Z,4.14
2017-08-05T12:23:34.258Z,4.13
2017-08-05T12:24:37.999Z,4.13
2017-08-05T12:25:43.281Z,4.13
2017-08-05T12:26:48.513Z,4.14
2017-08-05T12:27:54.814Z,4.13
2017-08-05T12:28:59.231Z,4.14
2017-08-05T12:31:17.887Z,4.13
2017-08-05T12:32:22.211Z,4.14
2017-08-05T12:33:26.788Z,4.12
2017-08-05T12:34:30.325Z,4.12
2017-08-05T12:35:37.283Z,4.14
2017-08-05T12:36:44.001Z,4.12
2017-08-05T12:37:50.221Z,4.13
2017-08-05T12:38:56.502Z,4.13
2017-08-05T12:40:03.288Z,4.14
2017-08-05T12:41:08.471Z,4.14
2017-08-05T12:42:14.790Z,4.13
2017-08-05T12:43:22.315Z,4.13
2017-08-05T12:44:31.836Z,4.13
2017-08-05T12:45:40.323Z,4.12
2017-08-05T12:46:43.304Z,4.13
2017-08-05T12:47:49.953Z,4.13
2017-08-05T12:48:59.906Z,4.13
2017-08-05T12:50:10.828Z,4.12
2017-08-05T12:51:19.479Z,4.13
2017-08-05T12:52:31.164Z,4.13
2017-08-05T12:53:41.313Z,4.14
2017-08-05T12:54:50.312Z,4.13
2017-08-05T12:55:55.025Z,4.13
2017-08-05T12:57:05.507Z,4.13
2017-08-05T12:58:16.514Z,4.12
2017-08-05T12:59:24.868Z,4.13
2017-08-05T13:00:33.822Z,4.12
2017-08-05T13:01:40.005Z,4.12
2017-08-05T13:02:45.204Z,4.13
2017-08-05T13:03:50.441Z,4.12
2017-08-05T13:04:55.270Z,4.12
2017-08-05T13:06:00.728Z,4.12
2017-08-05T13:07:08.278Z,4.14
2017-08-05T13:08:12.448Z,4.13
2017-08-05T13:09:17.687Z,4.14
2017-08-05T13:10:23.341Z,4.13
2017-08-05T13:11:28.844Z,4.13
2017-08-05T13:12:34.539Z,4.14
2017-08-05T13:13:39.726Z,4.12
2017-08-05T13:14:44.846Z,4.13
2017-08-05T13:15:51.319Z,4.13
2017-08-05T13:16:57.333Z,4.13
2017-08-05T13:18:01.323Z,4.13
2017-08-05T13:19:08.379Z,4.14
2017-08-05T13:20:14.443Z,4.13
2017-08-05T13:21:20.049Z,4.13
2017-08-05T13:22:25.654Z,4.12
2017-08-05T13:23:31.749Z,4.12
2017-08-05T13:24:39.510Z,4.12
2017-08-05T13:25:46.371Z,4.12
2017-08-05T13:26:54.287Z,4.12
2017-08-05T13:28:00.563Z,4.12
2017-08-05T13:29:05.426Z,4.13
2017-08-05T13:30:11.741Z,4.12
2017-08-05T13:31:19.561Z,4.13
2017-08-05T13:32:27.127Z,4.12
2017-08-05T13:33:32.851Z,4.12
2017-08-05T13:34:40.317Z,4.12
2017-08-05T13:35:44.443Z,4.12
2017-08-05T13:36:50.153Z,4.12
2017-08-05T13:37:55.676Z,4.13
2017-08-05T13:39:01.441Z,4.12
2017-08-05T13:40:06.261Z,4.12
2017-08-05T13:41:12.049Z,4.12
2017-08-05T13:42:18.456Z,4.12
2017-08-05T13:43:22.713Z,4.12
2017-08-05T13:44:27.397Z,4.12
2017-08-05T13:45:31.700Z,4.12
2017-08-05T13:46:40.209Z,4.13
2017-08-05T13:47:44.517Z,4.13
2017-08-05T13:48:50.560Z,4.12
2017-08-05T13:49:55.160Z,4.12
2017-08-05T13:50:59.181Z,4.12
2017-08-05T13:52:06.310Z,4.12
2017-08-05T13:53:13.660Z,4.13
2017-08-05T13:54:18.613Z,4.12
2017-08-05T13:55:24.920Z,4.12
2017-08-05T13:56:31.004Z,4.12
2017-08-05T13:57:35.822Z,4.12
2017-08-05T13:58:41.017Z,4.12
2017-08-05T13:59:46.967Z,4.12
2017-08-05T14:00:52.122Z,4.12
2017-08-05T14:01:58.636Z,4.12
2017-08-05T14:03:04.581Z,4.13
2017-08-05T14:04:14.552Z,4.12
2017-08-05T14:05:18.728Z,4.12
2017-08-05T14:06:23.392Z,4.12
2017-08-05T14:07:30.438Z,4.12
2017-08-05T14:08:35.531Z,4.13
2017-08-05T14:09:41.922Z,4.12
2017-08-05T14:10:48.201Z,4.12
2017-08-05T14:11:53.838Z,4.12
2017-08-05T14:12:57.928Z,4.11
2017-08-05T14:14:06.948Z,4.12
2017-08-05T14:15:08.993Z,4.12
2017-08-05T14:16:15.452Z,4.12
2017-08-05T14:17:20.364Z,4.12
2017-08-05T14:18:24.863Z,4.12
2017-08-05T14:19:33.970Z,4.12
2017-08-05T14:20:38.464Z,4.12
2017-08-05T14:21:43.784Z,4.12
2017-08-05T14:22:50.176Z,4.12
2017-08-05T14:23:56.900Z,4.12
2017-08-05T14:25:04.266Z,4.12
2017-08-05T14:26:09.728Z,4.12
2017-08-05T14:27:15.475Z,4.12
2017-08-05T14:28:21.437Z,4.11
2017-08-05T14:29:25.515Z,4.12
2017-08-05T14:30:30.977Z,4.12
2017-08-05T14:31:37.680Z,4.12
2017-08-05T14:32:42.999Z,4.12
2017-08-05T14:33:51.984Z,4.12
2017-08-05T14:34:55.592Z,4.12
2017-08-05T14:36:01.592Z,4.12
2017-08-05T14:37:10.518Z,4.12
2017-08-05T14:38:14.368Z,4.12
2017-08-05T14:39:21.244Z,4.12
2017-08-05T14:40:29.160Z,4.11
2017-08-05T14:41:38.743Z,4.12
2017-08-05T14:42:46.003Z,4.12
2017-08-05T14:43:51.514Z,4.12
2017-08-05T14:44:58.018Z,4.12
2017-08-05T14:46:03.052Z,4.11
2017-08-05T14:47:09.954Z,4.12
2017-08-05T14:49:25.925Z,4.11
2017-08-05T14:50:33.501Z,4.12
2017-08-05T14:51:42.757Z,4.12
2017-08-05T14:52:53.708Z,4.12
2017-08-05T14:54:04.210Z,4.12
2017-08-05T14:56:24.529Z,4.11
2017-08-05T14:57:31.268Z,4.12
2017-08-05T14:59:46.345Z,4.11
2017-08-05T15:00:52.045Z,4.12
2017-08-05T15:01:59.144Z,4.12
2017-08-05T15:03:05.365Z,4.12
2017-08-05T15:04:10.529Z,4.11
2017-08-05T15:05:15.117Z,4.12
2017-08-05T15:06:21.540Z,4.12
2017-08-05T15:07:28.541Z,4.12
2017-08-05T15:08:35.051Z,4.12
2017-08-05T15:09:43.045Z,4.12
2017-08-05T15:10:48.797Z,4.12
2017-08-05T15:11:57.684Z,4.11
2017-08-05T15:13:03.184Z,4.11
2017-08-05T15:14:10.732Z,4.11
2017-08-05T15:15:16.848Z,4.11
2017-08-05T15:16:24.826Z,4.11
2017-08-05T15:17:34.238Z,4.12
2017-08-05T15:18:41.060Z,4.11
2017-08-05T15:19:48.312Z,4.11
2017-08-05T15:20:54.565Z,4.10
2017-08-05T15:22:01.092Z,4.11
2017-08-05T15:23:07.887Z,4.10
2017-08-05T15:24:11.319Z,4.11
2017-08-05T15:25:16.582Z,4.12
2017-08-05T15:26:22.756Z,4.12
2017-08-05T15:27:29.274Z,4.12
2017-08-05T15:28:35.578Z,4.11
2017-08-05T15:29:39.710Z,4.10
2017-08-05T15:30:46.923Z,4.12
2017-08-05T15:31:53.384Z,4.12
2017-08-05T15:32:57.984Z,4.11
2017-08-05T15:34:05.014Z,4.12
2017-08-05T15:35:12.223Z,4.11
2017-08-05T15:36:19.592Z,4.11
2017-08-05T15:37:26.610Z,4.10
2017-08-05T15:38:30.680Z,4.11
2017-08-05T15:39:37.453Z,4.10
2017-08-05T15:40:44.830Z,4.11
2017-08-05T15:41:54.300Z,4.10
2017-08-05T15:43:00.939Z,4.10
2017-08-05T15:44:09.104Z,4.12
2017-08-05T15:45:14.204Z,4.12
2017-08-05T15:46:21.909Z,4.10
2017-08-05T15:47:29.353Z,4.10
2017-08-05T15:48:37.433Z,4.11
2017-08-05T15:49:45.394Z,4.10
2017-08-05T15:50:52.784Z,4.11
2017-08-05T15:51:59.780Z,4.12
2017-08-05T15:53:06.347Z,4.11
2017-08-05T15:54:13.393Z,4.11
2017-08-05T15:55:19.410Z,4.10
2017-08-05T15:56:27.353Z,4.11
2017-08-05T15:57:36.133Z,4.11
2017-08-05T15:58:46.635Z,4.10
2017-08-05T15:59:51.441Z,4.12
2017-08-05T16:00:58.136Z,4.11
2017-08-05T16:02:04.309Z,4.10
2017-08-05T16:03:10.973Z,4.11
2017-08-05T16:04:16.260Z,4.11
2017-08-05T16:05:21.647Z,4.11
2017-08-05T16:06:28.015Z,4.10
2017-08-05T16:07:34.483Z,4.10
2017-08-05T16:08:41.844Z,4.10
2017-08-05T16:09:47.827Z,4.10
2017-08-05T16:10:53.543Z,4.11
2017-08-05T16:11:59.890Z,4.11
2017-08-05T16:13:06.153Z,4.12
2017-08-05T16:14:14.672Z,4.11
2017-08-05T16:15:20.460Z,4.10
2017-08-05T16:16:27.159Z,4.10
2017-08-05T16:17:32.995Z,4.10
2017-08-05T16:18:39.141Z,4.11
2017-08-05T16:19:47.202Z,4.10
2017-08-05T16:20:53.202Z,4.11
2017-08-05T16:22:00.304Z,4.11
2017-08-05T16:23:07.496Z,4.10
2017-08-05T16:24:13.550Z,4.11
2017-08-05T16:25:18.310Z,4.10
2017-08-05T16:26:24.684Z,4.11
2017-08-05T16:27:31.023Z,4.10
2017-08-05T16:28:36.802Z,4.10
2017-08-05T16:29:43.181Z,4.10
2017-08-05T16:30:51.183Z,4.10
2017-08-05T16:31:57.393Z,4.10
2017-08-05T16:33:04.186Z,4.11
2017-08-05T16:34:10.307Z,4.11
2017-08-05T16:35:16.110Z,4.10
2017-08-05T16:36:21.576Z,4.11
2017-08-05T16:37:30.194Z,4.10
2017-08-05T16:38:33.642Z,4.10
2017-08-05T16:39:37.794Z,4.10
2017-08-05T16:40:41.893Z,4.11
2017-08-05T16:41:47.935Z,4.10
2017-08-05T16:42:54.883Z,4.10
2017-08-05T16:44:01.213Z,4.10
2017-08-05T16:45:06.155Z,4.10
2017-08-05T16:46:12.483Z,4.10
2017-08-05T16:47:19.777Z,4.10
2017-08-05T16:48:26.116Z,4.10
2017-08-05T16:49:29.689Z,4.10
2017-08-05T16:50:34.961Z,4.10
2017-08-05T16:51:42.100Z,4.10
2017-08-05T16:52:47.223Z,4.10
2017-08-05T16:53:54.330Z,4.10
2017-08-05T16:54:58.680Z,4.10
2017-08-05T16:56:04.415Z,4.10
2017-08-05T16:57:09.569Z,4.10
2017-08-05T16:58:20.728Z,4.10
2017-08-05T16:59:26.977Z,4.10
2017-08-05T17:00:34.232Z,4.10
2017-08-05T17:01:39.763Z,4.10
2017-08-05T17:02:47.738Z,4.10
2017-08-05T17:03:54.184Z,4.10
2017-08-05T17:05:01.243Z,4.10
2017-08-05T17:06:06.743Z,4.10
2017-08-05T17:07:11.244Z,4.10
2017-08-05T17:08:16.247Z,4.09
2017-08-05T17:09:22.323Z,4.10
2017-08-05T17:10:27.861Z,4.10
2017-08-05T17:11:34.068Z,4.10
2017-08-05T17:12:40.267Z,4.10
2017-08-05T17:13:47.499Z,4.10
2017-08-05T17:14:54.357Z,4.10
2017-08-05T17:15:59.068Z,4.10
2017-08-05T17:17:06.271Z,4.10
2017-08-05T17:18:12.782Z,4.10
2017-08-05T17:19:18.783Z,4.10
2017-08-05T17:20:25.186Z,4.10
2017-08-05T17:21:32.543Z,4.10
2017-08-05T17:22:39.673Z,4.09
2017-08-05T17:23:45.948Z,4.10
2017-08-05T17:24:51.972Z,4.09
2017-08-05T17:25:58.084Z,4.10
2017-08-05T17:27:07.017Z,4.10
2017-08-05T17:28:12.335Z,4.10
2017-08-05T17:29:18.284Z,4.10
2017-08-05T17:30:23.461Z,4.10
2017-08-05T17:31:27.719Z,4.10
2017-08-05T17:32:36.299Z,4.10
2017-08-05T17:33:39.804Z,4.10
2017-08-05T17:34:47.619Z,4.10
2017-08-05T17:35:55.022Z,4.10
2017-08-05T17:37:02.032Z,4.10
2017-08-05T17:38:10.301Z,4.10
2017-08-05T17:39:17.302Z,4.09
2017-08-05T17:40:22.382Z,4.10
2017-08-05T17:41:29.962Z,4.09
2017-08-05T17:42:35.324Z,4.10
2017-08-05T17:43:41.803Z,4.10
2017-08-05T17:44:48.917Z,4.10
2017-08-05T17:45:54.848Z,4.10
2017-08-05T17:47:01.642Z,4.10
2017-08-05T17:48:06.634Z,4.10
2017-08-05T17:49:13.979Z,4.10
2017-08-05T17:50:20.866Z,4.10
2017-08-05T17:51:25.610Z,4.09
2017-08-05T17:52:30.495Z,4.09
2017-08-05T17:53:38.730Z,4.10
2017-08-05T17:54:47.949Z,4.10
2017-08-05T17:55:55.230Z,4.09
2017-08-05T17:57:00.546Z,4.09
2017-08-05T17:58:05.177Z,4.10
2017-08-05T17:59:12.834Z,4.10
2017-08-05T18:00:17.644Z,4.10
2017-08-05T18:01:23.705Z,4.09
2017-08-05T18:02:28.350Z,4.10
2017-08-05T18:03:33.708Z,4.09
2017-08-05T18:04:40.138Z,4.09
2017-08-05T18:05:47.927Z,4.09
2017-08-05T18:06:54.344Z,4.09
2017-08-05T18:07:58.252Z,4.10
2017-08-05T18:09:03.147Z,4.10
2017-08-05T18:10:09.855Z,4.10
2017-08-05T18:11:17.003Z,4.10
2017-08-05T18:12:22.521Z,4.10
2017-08-05T18:13:29.159Z,4.10
2017-08-05T18:14:33.673Z,4.09
2017-08-05T18:15:39.249Z,4.09
2017-08-05T18:16:46.724Z,4.10
2017-08-05T18:17:51.600Z,4.10
2017-08-05T18:18:57.200Z,4.09
2017-08-05T18:20:03.737Z,4.09
2017-08-05T18:21:11.801Z,4.10
2017-08-05T18:22:17.400Z,4.10
2017-08-05T18:23:22.885Z,4.09
2017-08-05T18:24:30.055Z,4.10
2017-08-05T18:25:36.654Z,4.09
2017-08-05T18:26:42.769Z,4.10
2017-08-05T18:27:53.381Z,4.09
2017-08-05T18:28:57.235Z,4.08
2017-08-05T18:30:04.391Z,4.09
2017-08-05T18:31:12.022Z,4.10
2017-08-05T18:32:18.370Z,4.09
2017-08-05T18:33:25.636Z,4.09
2017-08-05T18:34:31.464Z,4.10
2017-08-05T18:35:36.709Z,4.08
2017-08-05T18:36:43.050Z,4.09
2017-08-05T18:37:48.076Z,4.09
2017-08-05T18:38:59.032Z,4.08
2017-08-05T18:40:04.088Z,4.10
2017-08-05T18:41:10.146Z,4.09
2017-08-05T18:42:15.921Z,4.09
2017-08-05T18:43:21.321Z,4.09
2017-08-05T18:44:29.225Z,4.10
2017-08-05T18:45:35.193Z,4.09
2017-08-05T18:46:44.140Z,4.09
2017-08-05T18:47:51.504Z,4.09
2017-08-05T18:48:57.997Z,4.10
2017-08-05T18:50:04.768Z,4.10
2017-08-05T18:51:09.610Z,4.09
2017-08-05T18:52:14.652Z,4.10
2017-08-05T18:53:22.268Z,4.08
2017-08-05T18:54:26.543Z,4.09
2017-08-05T18:55:31.739Z,4.10
2017-08-05T18:56:37.799Z,4.09
2017-08-05T18:57:45.928Z,4.09
2017-08-05T18:58:50.130Z,4.09
2017-08-05T18:59:57.947Z,4.09
2017-08-05T19:01:02.056Z,4.09
2017-08-05T19:02:09.743Z,4.08
2017-08-05T19:03:17.027Z,4.09
2017-08-05T19:04:23.961Z,4.10
2017-08-05T19:05:29.178Z,4.09
2017-08-05T19:06:36.240Z,4.09
2017-08-05T19:07:42.450Z,4.09
2017-08-05T19:08:50.136Z,4.08
2017-08-05T19:09:54.579Z,4.08
2017-08-05T19:11:00.633Z,4.08
2017-08-05T19:12:07.628Z,4.09
2017-08-05T19:13:14.466Z,4.09
2017-08-05T19:14:19.159Z,4.08
2017-08-05T19:15:26.235Z,4.09
2017-08-05T19:16:32.958Z,4.10
2017-08-05T19:17:37.057Z,4.08
2017-08-05T19:18:42.470Z,4.09
2017-08-05T19:19:50.593Z,4.08
2017-08-05T19:20:58.664Z,4.09
2017-08-05T19:22:03.739Z,4.09
2017-08-05T19:23:10.006Z,4.08
2017-08-05T19:24:18.480Z,4.08
2017-08-05T19:25:22.151Z,4.08
2017-08-05T19:26:26.967Z,4.10
2017-08-05T19:27:34.999Z,4.09
2017-08-05T19:28:40.490Z,4.08
2017-08-05T19:29:46.605Z,4.08
2017-08-05T19:30:50.882Z,4.08
2017-08-05T19:31:56.248Z,4.09
2017-08-05T19:33:00.686Z,4.08
2017-08-05T19:34:06.265Z,4.09
2017-08-05T19:35:11.918Z,4.08
2017-08-05T19:36:16.070Z,4.09
2017-08-05T19:37:20.923Z,4.09
2017-08-05T19:38:29.198Z,4.09
2017-08-05T19:39:36.223Z,4.08
2017-08-05T19:40:43.079Z,4.09
2017-08-05T19:41:47.510Z,4.08
2017-08-05T19:42:52.308Z,4.09
2017-08-05T19:44:00.003Z,4.09
2017-08-05T19:45:05.605Z,4.08
2017-08-05T19:46:13.252Z,4.09
2017-08-05T19:47:20.446Z,4.08
2017-08-05T19:48:29.520Z,4.08
2017-08-05T19:49:34.043Z,4.09
2017-08-05T19:50:39.782Z,4.08
2017-08-05T19:51:45.106Z,4.08
2017-08-05T19:52:50.621Z,4.09
2017-08-05T19:53:56.021Z,4.08
2017-08-05T19:55:02.002Z,4.10
2017-08-05T19:56:08.539Z,4.08
2017-08-05T19:57:13.776Z,4.09
2017-08-05T19:58:20.107Z,4.09
2017-08-05T19:59:26.033Z,4.08
2017-08-05T20:00:30.035Z,4.09
2017-08-05T20:01:35.821Z,4.08
2017-08-05T20:02:40.636Z,4.08
2017-08-05T20:03:46.853Z,4.08
2017-08-05T20:04:51.543Z,4.09
2017-08-05T20:05:57.743Z,4.08
2017-08-05T20:07:02.343Z,4.08
2017-08-05T20:08:08.261Z,4.08
2017-08-05T20:09:13.045Z,4.08
2017-08-05T20:10:17.720Z,4.08
2017-08-05T20:11:22.646Z,4.09
2017-08-05T20:12:28.898Z,4.08
2017-08-05T20:13:38.551Z,4.08
2017-08-05T20:14:44.553Z,4.07
2017-08-05T20:15:50.883Z,4.08
2017-08-05T20:16:56.574Z,4.08
2017-08-05T20:18:02.208Z,4.08
2017-08-05T20:19:06.099Z,4.08
2017-08-05T20:20:11.878Z,4.08
2017-08-05T20:21:16.574Z,4.08
2017-08-05T20:22:22.569Z,4.08
2017-08-05T20:23:28.378Z,4.08
2017-08-05T20:24:34.524Z,4.08
2017-08-05T20:25:41.535Z,4.08
2017-08-05T20:26:49.420Z,4.08
2017-08-05T20:27:55.961Z,4.09
2017-08-05T20:29:02.438Z,4.08
2017-08-05T20:30:06.967Z,4.08
2017-08-05T20:31:12.230Z,4.08
2017-08-05T20:32:19.208Z,4.08
2017-08-05T20:33:25.255Z,4.08
2017-08-05T20:34:33.095Z,4.08
2017-08-05T20:35:39.432Z,4.08
2017-08-05T20:36:45.087Z,4.08
2017-08-05T20:37:51.592Z,4.08
2017-08-05T20:38:55.720Z,4.08
2017-08-05T20:40:00.616Z,4.08
2017-08-05T20:41:08.094Z,4.08
2017-08-05T20:42:12.837Z,4.08
2017-08-05T20:43:21.105Z,4.08
2017-08-05T20:44:25.299Z,4.07
2017-08-05T20:45:31.421Z,4.08
2017-08-05T20:46:37.716Z,4.08
2017-08-05T20:47:43.032Z,4.08
2017-08-05T20:48:51.113Z,4.08
2017-08-05T20:49:54.809Z,4.08
2017-08-05T20:51:00.891Z,4.08
2017-08-05T20:52:06.533Z,4.08
2017-08-05T20:53:11.585Z,4.08
2017-08-05T20:54:19.116Z,4.08
2017-08-05T20:55:26.548Z,4.08
2017-08-05T20:56:31.704Z,4.07
2017-08-05T20:57:39.121Z,4.07
2017-08-05T20:58:43.812Z,4.08
2017-08-05T20:59:49.624Z,4.07
2017-08-05T21:00:54.541Z,4.08
2017-08-05T21:02:00.630Z,4.09
2017-08-05T21:03:04.148Z,4.08
2017-08-05T21:04:08.685Z,4.07
2017-08-05T21:05:13.327Z,4.08
2017-08-05T21:06:18.635Z,4.08
2017-08-05T21:07:24.433Z,4.08
2017-08-05T21:08:30.503Z,4.08
2017-08-05T21:09:36.349Z,4.08
2017-08-05T21:10:43.144Z,4.08
2017-08-05T21:11:47.862Z,4.08
2017-08-05T21:12:55.144Z,4.07
2017-08-05T21:14:01.155Z,4.08
2017-08-05T21:15:06.660Z,4.08
2017-08-05T21:16:13.151Z,4.07
2017-08-05T21:17:17.532Z,4.08
2017-08-05T21:18:23.427Z,4.08
2017-08-05T21:19:29.329Z,4.08
2017-08-05T21:20:34.274Z,4.07
2017-08-05T21:21:39.965Z,4.08
2017-08-05T21:22:46.731Z,4.07
2017-08-05T21:23:51.811Z,4.08
2017-08-05T21:24:58.844Z,4.07
2017-08-05T21:26:05.026Z,4.08
2017-08-05T21:27:12.300Z,4.08
2017-08-05T21:28:15.873Z,4.08
2017-08-05T21:29:21.849Z,4.08
2017-08-05T21:30:27.285Z,4.07
2017-08-05T21:31:33.683Z,4.08
2017-08-05T21:32:38.678Z,4.07
2017-08-05T21:33:46.123Z,4.07
2017-08-05T21:34:52.966Z,4.08
2017-08-05T21:36:00.411Z,4.08
2017-08-05T21:37:04.929Z,4.07
2017-08-05T21:38:10.566Z,4.07
2017-08-05T21:39:16.818Z,4.08